Time;durP1;ratioP1;P1;durP2;ratioP2;P2;SDS_P1;SDS_P2;PMS_P1;PMS_P2;Temp;Humidity;BMP_temperature;BMP_pressure;BME280_temperature;BME280_humidity;BME280_pressure;Samples;Min_cycle;Max_cycle;Signal;HPM_P1;HPM_P2
2021/04/23 00:00:58;;;;;;;4.40;2.40;;;;;;;13.35;58.29;100738.22;5034947;28;20104;-74
2021/04/23 00:03:32;;;;;;;6.38;2.90;;;;;;;13.41;58.12;100728.06;5008227;28;20049;-71
2021/04/23 00:06:14;;;;;;;5.80;2.42;;;;;;;12.94;58.71;100681.69;5010867;28;20029;-77
2021/04/23 00:09:10;;;;;;;3.65;2.42;;;;;;;13.30;59.30;100715.59;5011050;28;20612;-75
2021/04/23 00:11:52;;;;;;;4.40;2.60;;;;;;;13.26;59.46;100723.28;4914921;29;20063;-74
2021/04/23 00:14:21;;;;;;;4.90;2.55;;;;;;;12.95;60.83;100700.72;4912618;29;20028;-74
2021/04/23 00:16:47;;;;;;;3.78;2.25;;;;;;;12.93;60.57;100707.56;4913765;29;20149;-72
2021/04/23 00:19:17;;;;;;;4.18;2.70;;;;;;;12.90;60.35;100700.59;4913519;29;20051;-71
2021/04/23 00:22:05;;;;;;;3.83;2.33;;;;;;;13.03;59.56;100708.75;4913600;29;20052;-72
2021/04/23 00:24:31;;;;;;;3.88;2.53;;;;;;;13.13;58.89;100707.31;4894487;29;20037;-73
2021/04/23 00:26:57;;;;;;;4.00;2.65;;;;;;;13.02;59.15;100689.72;4894660;29;20582;-72
2021/04/23 00:29:23;;;;;;;4.72;2.50;;;;;;;13.17;59.17;100706.56;4894222;29;20187;-72
2021/04/23 00:34:34;;;;;;;4.22;2.10;;;;;;;13.18;58.98;100690.19;4916160;29;20098;-74
2021/04/23 00:37:00;;;;;;;4.68;2.97;;;;;;;13.25;58.84;100698.19;4930076;29;20146;-73
2021/04/23 00:39:25;;;;;;;4.75;2.42;;;;;;;13.25;58.93;100690.41;4916479;29;20036;-75
2021/04/23 00:41:51;;;;;;;3.50;2.10;;;;;;;12.97;58.72;100636.84;4926855;29;20419;-73
2021/04/23 00:44:17;;;;;;;4.10;2.55;;;;;;;13.17;59.12;100675.44;4923855;29;20052;-75
2021/04/23 00:46:43;;;;;;;4.32;2.50;;;;;;;13.32;58.45;100686.28;4898354;29;20134;-72
2021/04/23 00:49:09;;;;;;;5.22;2.40;;;;;;;13.35;58.97;100685.50;4986999;28;20415;-71
2021/04/23 00:51:43;;;;;;;4.63;2.20;;;;;;;12.87;58.48;100627.06;5002836;28;20029;-75
2021/04/23 00:54:09;;;;;;;3.60;2.20;;;;;;;13.24;58.29;100690.34;5025352;28;20025;-74
2021/04/23 00:56:38;;;;;;;3.38;2.17;;;;;;;13.14;58.29;100681.44;5036998;28;20487;-72
2021/04/23 00:59:06;;;;;;;3.53;2.38;;;;;;;13.28;58.32;100692.19;5033349;28;20029;-75
2021/04/23 01:01:38;;;;;;;5.22;3.00;;;;;;;13.14;58.77;100668.47;5031853;28;20037;-79
2021/04/23 01:04:07;;;;;;;4.85;2.85;;;;;;;13.22;59.82;100695.50;5034193;28;20036;-77
2021/04/23 01:06:34;;;;;;;5.32;2.80;;;;;;;13.20;60.33;100691.13;5034206;28;20021;-73
2021/04/23 01:09:10;;;;;;;5.15;2.70;;;;;;;13.19;60.43;100689.34;5035069;28;20029;-74
2021/04/23 01:11:36;;;;;;;5.82;2.95;;;;;;;13.03;60.69;100681.09;5032880;28;20049;-75
2021/04/23 01:14:03;;;;;;;6.53;2.70;;;;;;;12.95;61.20;100680.88;5033332;28;20396;-75
2021/04/23 01:16:29;;;;;;;3.30;2.53;;;;;;;12.98;61.88;100705.13;5031809;28;20029;-75
2021/04/23 01:18:55;;;;;;;3.38;2.30;;;;;;;12.96;61.91;100705.09;5031540;28;20025;-74
2021/04/23 01:21:25;;;;;;;4.47;2.58;;;;;;;12.77;61.44;100696.75;5027434;28;20137;-75
2021/04/23 01:23:54;;;;;;;5.20;3.08;;;;;;;12.71;61.64;100706.91;5043766;28;20058;-70
2021/04/23 01:26:23;;;;;;;6.45;2.88;;;;;;;12.42;61.79;100662.81;5051153;28;20032;-72
2021/04/23 01:28:53;;;;;;;4.75;3.03;;;;;;;12.54;62.75;100708.94;5052019;28;20087;-71
2021/04/23 01:31:22;;;;;;;5.63;3.33;;;;;;;12.29;62.39;100668.41;5051551;28;20040;-72
2021/04/23 01:33:50;;;;;;;6.07;3.00;;;;;;;12.48;62.23;100721.69;5051700;28;20037;-71
2021/04/23 01:36:16;;;;;;;7.30;3.40;;;;;;;12.36;62.25;100698.88;5051389;28;20033;-72
2021/04/23 01:38:46;;;;;;;5.32;2.90;;;;;;;12.19;62.50;100695.69;5051236;28;20494;-72
2021/04/23 01:41:12;;;;;;;4.47;3.08;;;;;;;12.16;63.13;100715.41;5047277;28;20049;-74
2021/04/23 01:43:38;;;;;;;7.32;3.63;;;;;;;12.06;64.41;100719.38;5034739;28;20411;-72
2021/04/23 01:46:06;;;;;;;4.75;3.42;;;;;;;11.89;64.24;100716.19;5032848;28;20411;-73
2021/04/23 01:48:33;;;;;;;4.82;2.97;;;;;;;12.00;64.29;100721.75;5027720;28;20119;-74
2021/04/23 01:51:00;;;;;;;6.80;3.30;;;;;;;11.62;63.57;100649.72;5012662;28;20037;-72
2021/04/23 01:53:26;;;;;;;6.93;3.22;;;;;;;12.11;63.42;100723.91;5028751;28;20495;-73
2021/04/23 01:55:51;;;;;;;6.40;2.92;;;;;;;12.18;63.02;100726.72;5029262;28;20036;-73
2021/04/23 01:58:16;;;;;;;7.30;3.10;;;;;;;12.23;62.76;100730.34;5029109;28;20057;-72
2021/04/23 02:00:47;;;;;;;6.05;3.53;;;;;;;11.80;62.70;100650.38;5028925;28;20121;-73
2021/04/23 02:03:14;;;;;;;4.95;3.22;;;;;;;12.13;63.23;100716.19;5028948;28;20069;-74
2021/04/23 02:05:43;;;;;;;5.07;3.33;;;;;;;12.08;63.56;100712.56;5012246;28;20083;-72
2021/04/23 02:08:13;;;;;;;4.73;3.03;;;;;;;11.70;63.98;100673.25;5028564;28;20080;-71
2021/04/23 02:10:46;;;;;;;6.65;3.65;;;;;;;11.93;64.07;100702.53;5028745;28;20314;-73
2021/04/23 02:13:13;;;;;;;5.93;3.35;;;;;;;11.87;64.03;100716.13;5028895;28;20052;-71
2021/04/23 02:15:39;;;;;;;5.05;3.80;;;;;;;11.76;64.12;100682.13;5028757;28;20057;-75
2021/04/23 02:18:06;;;;;;;6.32;3.20;;;;;;;11.59;64.02;100641.84;4995793;28;20076;-75
2021/04/23 02:20:34;;;;;;;4.72;3.28;;;;;;;11.71;64.14;100655.19;5049416;28;20460;-69
2021/04/23 02:23:02;;;;;;;5.03;3.33;;;;;;;11.99;63.81;100700.19;5048072;28;20496;-76
2021/04/23 02:25:30;;;;;;;6.13;3.08;;;;;;;11.94;63.92;100699.13;5050805;28;20056;-75
2021/04/23 02:27:57;;;;;;;6.40;3.75;;;;;;;11.77;63.99;100690.75;5050836;28;20451;-75
2021/04/23 02:30:29;;;;;;;9.82;5.60;;;;;;;11.92;64.08;100708.53;5032959;28;20033;-77
2021/04/23 02:32:56;;;;;;;7.75;6.15;;;;;;;11.86;64.41;100696.25;5032838;28;20071;-76
2021/04/23 02:35:25;;;;;;;5.32;3.60;;;;;;;11.30;64.58;100616.72;5050871;28;20059;-82
2021/04/23 02:37:52;;;;;;;4.72;3.65;;;;;;;11.77;65.42;100696.81;5043917;28;20079;-75
2021/04/23 02:40:21;;;;;;;7.15;3.83;;;;;;;11.72;65.58;100697.47;5034878;28;20069;-75
2021/04/23 02:42:49;;;;;;;5.97;3.58;;;;;;;11.59;65.83;100678.03;5032328;28;20018;-73
2021/04/23 02:45:19;;;;;;;6.32;3.72;;;;;;;11.44;65.51;100643.06;5031646;28;20108;-78
2021/04/23 02:47:46;;;;;;;7.25;4.22;;;;;;;11.89;65.26;100713.63;5031284;28;20061;-74
2021/04/23 02:50:13;;;;;;;6.43;4.00;;;;;;;11.86;65.58;100704.00;5032085;28;20049;-75
2021/04/23 02:52:39;;;;;;;4.78;3.67;;;;;;;11.86;65.73;100703.13;5030689;28;20057;-74
2021/04/23 02:55:06;;;;;;;5.80;3.58;;;;;;;11.84;65.79;100697.03;5051262;28;20541;-77
2021/04/23 02:57:32;;;;;;;4.75;3.92;;;;;;;11.89;65.77;100708.44;5012900;28;20030;-77
2021/04/23 02:59:58;;;;;;;6.53;3.85;;;;;;;11.71;66.41;100709.50;5048360;28;20040;-74
2021/04/23 03:02:24;;;;;;;6.38;4.97;;;;;;;11.40;67.84;100708.41;5040466;28;20414;-75
2021/04/23 03:04:50;;;;;;;6.30;4.40;;;;;;;11.01;69.61;100695.72;5054856;28;20033;-74
2021/04/23 03:07:19;;;;;;;4.93;3.95;;;;;;;10.57;70.26;100662.16;5054702;28;20036;-75
2021/04/23 03:09:45;;;;;;;11.35;7.63;;;;;;;11.21;69.25;100732.66;5054632;28;20036;-74
2021/04/23 03:12:10;;;;;;;9.25;6.30;;;;;;;11.31;68.80;100737.38;5036894;28;20029;-75
2021/04/23 03:14:36;;;;;;;6.07;4.50;;;;;;;11.35;68.22;100740.94;5019284;28;20131;-75
2021/04/23 03:17:02;;;;;;;6.85;4.68;;;;;;;11.30;67.93;100752.81;5054739;28;20048;-74
2021/04/23 03:19:27;;;;;;;5.07;3.85;;;;;;;11.12;68.37;100753.00;5052871;28;20144;-74
2021/04/23 03:21:53;;;;;;;5.57;3.75;;;;;;;11.14;68.70;100746.16;5054569;28;20184;-74
2021/04/23 03:24:19;;;;;;;5.65;3.78;;;;;;;10.96;67.98;100692.94;5054484;28;20032;-75
2021/04/23 03:26:45;;;;;;;5.85;3.40;;;;;;;11.28;67.62;100744.13;5054236;28;20572;-74
2021/04/23 03:29:13;;;;;;;7.10;3.58;;;;;;;11.40;67.17;100730.78;5054030;28;20051;-74
2021/04/23 03:31:39;;;;;;;6.00;4.30;;;;;;;11.55;67.06;100722.72;5054424;28;20028;-74
2021/04/23 03:34:05;;;;;;;6.28;3.80;;;;;;;11.62;66.69;100704.88;5054200;28;20028;-74
2021/04/23 03:36:31;;;;;;;6.53;3.95;;;;;;;11.48;66.65;100675.09;5054109;28;20031;-75
2021/04/23 03:38:57;;;;;;;7.85;3.67;;;;;;;11.66;66.28;100755.03;5053931;28;20471;-74
2021/04/23 03:41:29;;;;;;;6.10;3.65;;;;;;;11.71;66.72;100748.31;5054243;28;20037;-75
2021/04/23 03:43:54;;;;;;;7.60;4.13;;;;;;;11.82;66.24;100743.53;5054042;28;20111;-75
2021/04/23 03:46:20;;;;;;;8.63;4.30;;;;;;;12.02;64.89;100754.63;5054013;28;20487;-74
2021/04/23 03:48:45;;;;;;;8.23;5.65;;;;;;;11.96;64.45;100737.19;5053941;28;20467;-75
2021/04/23 03:51:13;;;;;;;11.63;6.40;;;;;;;12.20;64.53;100766.47;5018640;28;20064;-74
2021/04/23 03:53:41;;;;;;;7.10;5.05;;;;;;;12.30;64.62;100776.31;5053548;28;20043;-74
2021/04/23 03:56:07;;;;;;;9.45;4.50;;;;;;;12.33;64.27;100770.38;5053810;28;20575;-74
2021/04/23 03:58:34;;;;;;;7.57;4.07;;;;;;;12.28;64.56;100768.47;5053552;28;20033;-75
2021/04/23 04:01:21;;;;;;;9.27;4.00;;;;;;;12.31;65.16;100775.47;5051012;28;20029;-75
2021/04/23 04:03:48;;;;;;;5.10;3.60;;;;;;;12.25;65.51;100777.84;5043604;28;20483;-75
2021/04/23 04:06:14;;;;;;;6.20;4.05;;;;;;;12.34;65.61;100788.53;5049115;28;20597;-76
2021/04/23 04:08:39;;;;;;;6.05;4.60;;;;;;;12.35;65.00;100779.06;5038721;28;20116;-75
2021/04/23 04:11:05;;;;;;;9.88;7.65;;;;;;;12.40;64.97;100791.34;5038213;28;20040;-75
2021/04/23 04:13:32;;;;;;;7.05;4.78;;;;;;;12.23;65.14;100751.03;5053473;28;20035;-75
2021/04/23 04:15:59;;;;;;;6.25;3.90;;;;;;;12.49;64.81;100797.69;5053265;28;20495;-75
2021/04/23 04:18:24;;;;;;;7.53;4.15;;;;;;;12.39;65.23;100787.00;5053193;28;20036;-76
2021/04/23 04:20:51;;;;;;;9.32;4.38;;;;;;;12.49;65.56;100802.84;5053407;28;20029;-75
2021/04/23 04:23:17;;;;;;;5.20;4.18;;;;;;;12.52;65.61;100811.59;5042979;28;20053;-77
2021/04/23 04:25:48;;;;;;;8.25;4.07;;;;;;;12.58;65.46;100797.97;5037105;28;20036;-76
2021/04/23 04:28:13;;;;;;;7.00;4.28;;;;;;;12.62;65.25;100792.06;5042843;28;20034;-76
2021/04/23 04:30:40;;;;;;;6.03;4.00;;;;;;;12.54;65.15;100778.00;5035232;28;20079;-76
2021/04/23 04:33:07;;;;;;;6.25;4.45;;;;;;;12.52;65.59;100775.31;5033128;28;20104;-76
2021/04/23 04:35:33;;;;;;;7.45;4.97;;;;;;;12.69;65.61;100794.03;5033352;28;20033;-76
2021/04/23 04:38:00;;;;;;;11.40;5.90;;;;;;;12.69;66.03;100786.25;5015429;28;20025;-76
2021/04/23 04:40:29;;;;;;;8.07;4.85;;;;;;;12.65;66.52;100779.22;5032918;28;20033;-76
2021/04/23 04:42:57;;;;;;;9.23;4.75;;;;;;;12.70;66.27;100788.03;5033109;28;20061;-77
2021/04/23 04:45:25;;;;;;;16.08;6.95;;;;;;;12.60;66.53;100775.63;5032865;28;20056;-76
2021/04/23 04:47:51;;;;;;;9.35;6.55;;;;;;;12.44;66.63;100746.59;5032617;28;20033;-76
2021/04/23 04:50:21;;;;;;;9.38;5.82;;;;;;;12.82;66.22;100803.09;5046950;28;20464;-76
2021/04/23 04:52:46;;;;;;;11.23;6.47;;;;;;;12.83;66.31;100810.03;5044297;28;20042;-76
2021/04/23 04:55:14;;;;;;;15.00;8.02;;;;;;;12.62;66.27;100790.38;5038165;28;20112;-75
2021/04/23 04:57:40;;;;;;;14.48;9.45;;;;;;;12.62;66.74;100810.19;5039560;28;20029;-75
2021/04/23 05:00:08;;;;;;;15.63;8.63;;;;;;;12.45;66.94;100765.63;5052592;28;20502;-76
2021/04/23 05:02:34;;;;;;;10.02;6.53;;;;;;;12.56;66.53;100769.44;5052394;28;20029;-75
2021/04/23 05:05:04;;;;;;;10.55;5.72;;;;;;;12.94;66.22;100826.81;5052682;28;20028;-75
2021/04/23 05:07:30;;;;;;;9.32;4.57;;;;;;;12.95;65.43;100799.22;5052600;28;20468;-75
2021/04/23 05:09:55;;;;;;;18.63;5.50;;;;;;;13.04;66.05;100793.44;5051755;28;20029;-75
2021/04/23 05:12:21;;;;;;;12.85;5.60;;;;;;;13.05;67.25;100808.16;5052085;28;20065;-75
2021/04/23 05:14:47;;;;;;;11.68;5.13;;;;;;;13.04;67.60;100811.59;5052228;28;20040;-74
2021/04/23 05:17:12;;;;;;;14.00;5.30;;;;;;;13.18;66.80;100802.53;5055395;28;20025;-74
2021/04/23 05:19:38;;;;;;;10.30;5.05;;;;;;;13.30;66.14;100791.66;5052109;28;20040;-74
2021/04/23 05:22:03;;;;;;;8.57;4.38;;;;;;;13.22;65.70;100795.72;5034169;28;20057;-74
2021/04/23 05:24:29;;;;;;;10.10;4.97;;;;;;;13.29;65.06;100802.88;5045976;28;20487;-74
2021/04/23 05:26:54;;;;;;;7.45;4.63;;;;;;;13.29;64.53;100815.81;5044099;28;20033;-77
2021/04/23 05:29:19;;;;;;;10.13;7.18;;;;;;;13.12;64.23;100797.13;5041739;28;20084;-75
2021/04/23 05:31:45;;;;;;;6.25;4.70;;;;;;;13.26;63.66;100820.94;5040203;28;20084;-75
2021/04/23 05:34:10;;;;;;;8.70;4.05;;;;;;;13.23;63.83;100821.72;5042112;28;20033;-75
2021/04/23 05:36:36;;;;;;;7.88;4.43;;;;;;;13.22;64.28;100819.94;5041222;28;20083;-73
2021/04/23 05:39:02;;;;;;;8.52;4.35;;;;;;;13.03;64.57;100808.09;5040634;28;20036;-74
2021/04/23 05:41:28;;;;;;;9.70;4.03;;;;;;;13.09;65.06;100821.25;5041948;28;20503;-75
2021/04/23 05:43:53;;;;;;;16.02;4.13;;;;;;;12.98;67.39;100817.44;5040561;28;20025;-76
2021/04/23 05:46:19;;;;;;;7.10;3.75;;;;;;;12.60;67.72;100784.25;5023289;28;20402;-74
2021/04/23 05:48:46;;;;;;;6.25;3.60;;;;;;;12.82;68.13;100815.19;5031134;28;20026;-75
2021/04/23 05:51:12;;;;;;;7.10;4.35;;;;;;;12.84;68.87;100819.56;5031337;28;20027;-75
2021/04/23 05:53:38;;;;;;;5.68;3.97;;;;;;;12.78;69.36;100798.66;5030149;28;21381;-74
2021/04/23 05:56:04;;;;;;;7.80;3.92;;;;;;;12.87;69.59;100808.44;5034348;28;20139;-75
2021/04/23 05:58:29;;;;;;;6.65;4.47;;;;;;;12.86;70.60;100819.63;5046390;28;20380;-76
2021/04/23 06:00:55;;;;;;;9.27;4.75;;;;;;;12.89;70.78;100804.19;5051503;28;20029;-75
2021/04/23 06:03:20;;;;;;;9.68;4.70;;;;;;;13.02;68.97;100805.47;5051729;28;20033;-75
2021/04/23 06:05:46;;;;;;;11.85;4.85;;;;;;;13.21;67.22;100809.53;5051790;28;20553;-75
2021/04/23 06:08:13;;;;;;;8.80;4.82;;;;;;;13.18;65.61;100794.75;5051960;28;20060;-75
2021/04/23 06:10:40;;;;;;;7.18;5.05;;;;;;;13.33;65.24;100814.22;5051662;28;20036;-74
2021/04/23 06:13:06;;;;;;;6.97;5.18;;;;;;;13.34;64.90;100803.88;5051585;28;20025;-75
2021/04/23 06:15:31;;;;;;;8.70;4.35;;;;;;;13.51;65.00;100819.13;5033779;28;20021;-74
2021/04/23 06:17:57;;;;;;;6.75;5.22;;;;;;;13.50;64.05;100827.75;5051338;28;20021;-75
2021/04/23 06:20:30;;;;;;;7.40;4.50;;;;;;;13.63;63.99;100832.44;5051269;28;20028;-74
2021/04/23 06:22:56;;;;;;;7.25;5.28;;;;;;;13.74;64.84;100845.75;5051667;28;20106;-75
2021/04/23 06:25:22;;;;;;;6.10;4.35;;;;;;;13.43;63.88;100791.25;5051314;28;20029;-75
2021/04/23 06:27:50;;;;;;;5.05;4.03;;;;;;;13.79;64.44;100841.59;5051669;28;20033;-75
2021/04/23 06:30:22;;;;;;;5.63;3.95;;;;;;;13.57;65.19;100817.59;5055725;28;20040;-75
2021/04/23 06:32:49;;;;;;;6.55;5.20;;;;;;;13.74;65.91;100851.84;5055613;28;20036;-75
2021/04/23 06:35:17;;;;;;;8.27;5.38;;;;;;;13.83;65.62;100860.72;5055552;28;20060;-75
2021/04/23 06:37:43;;;;;;;7.47;4.80;;;;;;;13.83;66.26;100855.53;5055742;28;20040;-75
2021/04/23 06:40:11;;;;;;;7.00;5.55;;;;;;;13.81;66.13;100860.69;5055229;28;20407;-75
2021/04/23 06:42:37;;;;;;;13.48;6.15;;;;;;;13.42;65.81;100792.06;5055424;28;20103;-75
2021/04/23 06:45:06;;;;;;;8.45;5.70;;;;;;;13.73;65.51;100860.47;5055242;28;20105;-75
2021/04/23 06:47:36;;;;;;;7.32;5.57;;;;;;;13.82;66.52;100874.53;5055622;28;20025;-75
2021/04/23 06:50:04;;;;;;;9.02;5.65;;;;;;;13.88;65.67;100864.34;5054914;28;20041;-76
2021/04/23 06:52:31;;;;;;;6.93;4.82;;;;;;;13.82;65.19;100851.16;5055033;28;20025;-75
2021/04/23 06:54:56;;;;;;;10.95;5.30;;;;;;;13.93;64.89;100877.47;5055011;28;20063;-75
2021/04/23 06:57:22;;;;;;;8.18;5.30;;;;;;;13.72;65.04;100853.50;5054831;28;20032;-75
2021/04/23 06:59:47;;;;;;;7.35;5.00;;;;;;;13.91;65.48;100857.53;5054641;28;20025;-75
2021/04/23 07:02:13;;;;;;;7.00;4.80;;;;;;;13.62;66.30;100847.97;5054860;28;20516;-75
2021/04/23 07:04:38;;;;;;;8.68;5.40;;;;;;;13.51;66.20;100807.03;5055113;28;20021;-75
2021/04/23 07:07:04;;;;;;;9.50;5.60;;;;;;;13.92;65.83;100868.81;5054892;28;20423;-75
2021/04/23 07:09:30;;;;;;;6.13;4.65;;;;;;;13.82;65.34;100838.19;5054908;28;20029;-75
2021/04/23 07:11:57;;;;;;;7.10;4.75;;;;;;;14.07;65.72;100877.03;5037072;28;20032;-75
2021/04/23 07:14:23;;;;;;;8.02;5.53;;;;;;;14.03;65.08;100857.00;5054525;28;20029;-76
2021/04/23 07:16:48;;;;;;;8.00;5.47;;;;;;;14.10;65.08;100864.97;5054970;28;20035;-74
2021/04/23 07:19:14;;;;;;;10.70;6.70;;;;;;;14.10;65.36;100857.19;5054834;28;20111;-76
2021/04/23 07:21:39;;;;;;;7.55;5.22;;;;;;;13.95;65.39;100848.09;5054553;28;20051;-75
2021/04/23 07:24:05;;;;;;;9.30;5.60;;;;;;;14.11;65.17;100858.97;5054705;28;20032;-78
2021/04/23 07:26:31;;;;;;;7.60;4.68;;;;;;;13.92;65.54;100840.25;5053273;28;20064;-75
2021/04/23 07:28:56;;;;;;;9.82;5.20;;;;;;;13.74;66.76;100810.34;5054222;28;20033;-75
2021/04/23 07:31:22;;;;;;;7.65;4.95;;;;;;;14.19;66.00;100865.22;5054653;28;20092;-75
2021/04/23 07:33:47;;;;;;;8.85;5.20;;;;;;;14.23;66.58;100880.06;5054610;28;20025;-75
2021/04/23 07:36:13;;;;;;;8.40;5.15;;;;;;;14.30;66.36;100879.41;5035691;28;20041;-75
2021/04/23 07:38:38;;;;;;;12.45;5.68;;;;;;;14.36;66.61;100876.09;5054202;28;20029;-75
2021/04/23 07:41:04;;;;;;;6.97;4.60;;;;;;;14.34;65.45;100873.47;5054123;28;20476;-75
2021/04/23 07:43:29;;;;;;;7.00;4.35;;;;;;;14.35;65.50;100853.56;5053926;28;20029;-75
2021/04/23 07:45:55;;;;;;;6.25;4.10;;;;;;;14.31;65.92;100867.31;5054597;28;20028;-75
2021/04/23 07:48:22;;;;;;;10.65;4.15;;;;;;;14.45;65.92;100872.88;5054155;28;20458;-75
2021/04/23 07:50:48;;;;;;;6.22;4.25;;;;;;;14.53;65.49;100874.84;5054431;28;20061;-75
2021/04/23 07:53:14;;;;;;;7.00;4.50;;;;;;;14.63;65.77;100869.88;5036225;28;20024;-76
2021/04/23 07:55:40;;;;;;;5.18;3.50;;;;;;;14.48;65.11;100837.47;5054235;28;20380;-75
2021/04/23 07:58:06;;;;;;;7.78;4.50;;;;;;;14.77;64.64;100873.78;5053658;28;20449;-76
2021/04/23 08:00:31;;;;;;;5.20;3.90;;;;;;;14.95;64.04;100865.56;5054021;28;20029;-76
2021/04/23 08:02:57;;;;;;;6.80;3.72;;;;;;;14.91;63.88;100855.94;5054146;28;20021;-75
2021/04/23 08:05:23;;;;;;;7.00;3.53;;;;;;;15.01;64.09;100850.13;5053827;28;20403;-76
2021/04/23 08:07:50;;;;;;;6.55;4.00;;;;;;;15.20;63.62;100866.16;5054131;28;20025;-76
2021/04/23 08:10:17;;;;;;;6.63;2.72;;;;;;;14.88;62.45;100817.75;5053816;28;20051;-76
2021/04/23 08:12:45;;;;;;;4.97;3.05;;;;;;;15.46;62.36;100872.00;5053491;28;20025;-75
2021/04/23 08:15:12;;;;;;;5.05;2.72;;;;;;;15.53;60.42;100868.69;5053746;28;20033;-75
2021/04/23 08:17:37;;;;;;;3.38;2.60;;;;;;;15.72;58.68;100844.81;5053662;28;20032;-74
2021/04/23 08:20:08;;;;;;;6.55;2.35;;;;;;;15.96;58.92;100857.50;5019262;28;20120;-75
2021/04/23 08:22:35;;;;;;;3.17;1.98;;;;;;;16.15;57.89;100853.56;5045379;28;20609;-77
2021/04/23 08:25:01;;;;;;;8.60;2.40;;;;;;;15.93;56.09;100784.56;5043623;28;20025;-79
2021/04/23 08:27:26;;;;;;;5.63;1.95;;;;;;;16.29;55.35;100852.09;5014378;28;20407;-76
2021/04/23 08:29:55;;;;;;;3.60;2.00;;;;;;;16.46;56.50;100856.75;5053477;28;20025;-75
2021/04/23 08:32:21;;;;;;;3.03;1.65;;;;;;;16.63;54.12;100857.09;5053603;28;20063;-77
2021/04/23 08:34:47;;;;;;;6.30;1.65;;;;;;;16.52;53.71;100856.88;5053226;28;20035;-78
2021/04/23 08:37:13;;;;;;;2.05;1.80;;;;;;;16.70;53.78;100868.47;5053303;28;20041;-76
2021/04/23 08:39:39;;;;;;;4.07;1.70;;;;;;;16.22;53.53;100808.53;5053092;28;20382;-76
2021/04/23 08:42:06;;;;;;;4.70;1.63;;;;;;;16.69;54.25;100853.72;5052816;28;20100;-76
2021/04/23 08:44:31;;;;;;;2.20;1.60;;;;;;;16.77;53.06;100859.94;5053194;28;20021;-76
2021/04/23 08:46:57;;;;;;;2.75;1.77;;;;;;;16.60;54.47;100844.88;5053134;28;20029;-76
2021/04/23 08:49:23;;;;;;;3.05;1.65;;;;;;;16.12;53.25;100793.59;5053298;28;20082;-76
2021/04/23 08:51:50;;;;;;;3.65;1.63;;;;;;;16.33;55.27;100866.06;5052440;28;20033;-76
2021/04/23 08:54:15;;;;;;;4.22;1.80;;;;;;;15.97;53.56;100818.47;5052654;28;20529;-76
2021/04/23 08:56:41;;;;;;;3.60;1.70;;;;;;;16.28;54.07;100859.91;5053168;28;20040;-75
2021/04/23 08:59:06;;;;;;;2.05;1.42;;;;;;;16.04;54.26;100814.28;5049481;28;20064;-76
2021/04/23 09:01:32;;;;;;;2.42;1.75;;;;;;;16.51;54.81;100862.97;5037856;28;20033;-76
2021/04/23 09:03:57;;;;;;;4.03;1.63;;;;;;;16.47;55.04;100829.84;5033048;28;20526;-76
2021/04/23 09:06:25;;;;;;;3.00;1.80;;;;;;;16.73;54.64;100842.50;5014271;28;20025;-74
2021/04/23 09:08:57;;;;;;;1.67;1.40;;;;;;;16.74;53.23;100849.47;5017919;28;20116;-76
2021/04/23 09:11:25;;;;;;;7.97;2.15;;;;;;;16.88;53.96;100844.47;5037947;28;20442;-76
2021/04/23 09:13:54;;;;;;;2.15;1.55;;;;;;;16.92;53.22;100848.91;5042085;28;20032;-75
2021/04/23 09:16:23;;;;;;;2.85;1.60;;;;;;;16.80;53.17;100824.38;5052774;28;20031;-76
2021/04/23 09:18:49;;;;;;;5.55;2.80;;;;;;;16.87;53.63;100840.97;5047074;28;20033;-75
2021/04/23 09:21:15;;;;;;;3.60;1.80;;;;;;;16.86;52.82;100838.34;5051791;28;20419;-77
2021/04/23 09:23:46;;;;;;;3.97;1.48;;;;;;;17.04;52.81;100846.53;5029549;28;20065;-76
2021/04/23 09:26:35;;;;;;;1.85;1.35;;;;;;;17.06;51.96;100846.53;5026116;28;20041;-71
2021/04/23 09:29:02;;;;;;;3.10;1.52;;;;;;;16.91;51.54;100837.63;5026579;28;20069;-72
2021/04/23 09:31:30;;;;;;;1.77;1.45;;;;;;;17.13;52.69;100824.91;5012986;28;20044;-71
2021/04/23 09:34:01;;;;;;;1.23;1.13;;;;;;;17.48;50.24;100826.31;5026328;28;20040;-70
2021/04/23 09:36:31;;;;;;;4.40;1.95;;;;;;;17.66;47.90;100834.41;5027964;28;20037;-78
2021/04/23 09:39:10;;;;;;;2.20;1.20;;;;;;;17.74;48.68;100831.88;5028865;28;20044;-73
2021/04/23 09:41:40;;;;;;;4.80;1.70;;;;;;;17.33;48.98;100759.97;5012160;28;20072;-75
2021/04/23 09:44:42;;;;;;;11.88;7.15;;;;;;;17.90;49.08;100814.69;5028402;28;20107;-71
2021/04/23 09:47:22;;;;;;;1.50;1.40;;;;;;;17.76;49.42;100796.25;4963946;28;20035;-72
2021/04/23 09:49:52;;;;;;;7.90;1.38;;;;;;;17.73;49.27;100802.31;4955220;28;20053;-75
2021/04/23 09:52:18;;;;;;;3.28;1.70;;;;;;;17.52;49.48;100799.38;4959629;28;20055;-71
2021/04/23 09:54:51;;;;;;;3.22;1.50;;;;;;;17.51;50.15;100777.63;4977294;28;20509;-70
2021/04/23 09:57:23;;;;;;;1.33;1.13;;;;;;;17.65;49.29;100800.44;4983526;28;20085;-71
2021/04/23 09:59:53;;;;;;;2.88;2.00;;;;;;;17.88;50.18;100804.22;4988192;28;20038;-71
2021/04/23 10:02:21;;;;;;;2.15;1.50;;;;;;;17.93;49.98;100807.78;4979955;28;20026;-70
2021/04/23 10:04:47;;;;;;;2.13;1.30;;;;;;;17.93;51.38;100805.16;4971860;28;20042;-71
2021/04/23 10:07:23;;;;;;;1.52;1.20;;;;;;;18.11;48.60;100803.66;4979616;28;20057;-71
2021/04/23 10:09:54;;;;;;;6.32;1.40;;;;;;;17.85;48.27;100818.97;4980107;28;20104;-69
2021/04/23 10:12:28;;;;;;;3.80;1.20;;;;;;;17.69;48.51;100812.69;4984954;28;20117;-73
2021/04/23 10:14:59;;;;;;;3.40;2.35;;;;;;;17.83;49.25;100807.63;4976961;28;20031;-70
2021/04/23 10:17:25;;;;;;;3.15;1.70;;;;;;;18.39;49.42;100811.78;4984205;28;20100;-75
2021/04/23 10:19:50;;;;;;;1.50;1.40;;;;;;;18.05;48.54;100746.09;4960033;28;20038;-73
2021/04/23 10:22:16;;;;;;;5.07;1.70;;;;;;;18.82;48.38;100798.25;4982020;28;20465;-74
2021/04/23 10:24:43;;;;;;;1.92;1.55;;;;;;;18.65;46.76;100780.66;5029217;28;20116;-74
2021/04/23 10:27:09;;;;;;;5.45;2.20;;;;;;;18.86;46.63;100800.88;5033088;28;20036;-72
2021/04/23 10:29:36;;;;;;;2.20;1.80;;;;;;;18.66;48.31;100782.41;5034519;28;20033;-73
2021/04/23 10:32:04;;;;;;;1.42;1.30;;;;;;;18.75;47.39;100787.72;5025205;28;20040;-75
2021/04/23 10:34:33;;;;;;;2.38;1.73;;;;;;;19.02;46.59;100790.56;4995567;28;20045;-74
2021/04/23 10:36:59;;;;;;;3.45;1.90;;;;;;;18.95;46.88;100746.91;5030839;28;20029;-75
2021/04/23 10:39:26;;;;;;;1.10;1.00;;;;;;;18.86;45.91;100800.00;5031433;28;20025;-72
2021/04/23 10:41:52;;;;;;;3.00;1.77;;;;;;;18.46;46.97;100737.78;5032790;28;20029;-74
2021/04/23 10:44:19;;;;;;;2.60;1.52;;;;;;;18.71;48.00;100804.22;5040098;28;20029;-72
2021/04/23 10:46:52;;;;;;;3.38;1.30;;;;;;;18.46;46.36;100776.13;5035841;28;20075;-73
2021/04/23 10:49:19;;;;;;;2.03;1.60;;;;;;;18.72;46.81;100806.00;5050625;28;20109;-72
2021/04/23 10:51:45;;;;;;;2.05;1.40;;;;;;;18.86;44.36;100816.56;5050424;28;20490;-75
2021/04/23 10:54:16;;;;;;;13.50;10.57;;;;;;;18.92;44.93;100815.78;5027364;28;20033;-75
2021/04/23 10:56:55;;;;;;;3.97;2.22;;;;;;;18.66;45.43;100803.31;5037530;28;20032;-73
2021/04/23 10:59:21;;;;;;;4.35;3.03;;;;;;;18.48;46.33;100797.91;5040474;28;20056;-73
2021/04/23 11:01:49;;;;;;;4.75;3.05;;;;;;;18.39;45.25;100763.00;5043740;28;20071;-76
2021/04/23 11:04:16;;;;;;;1.67;1.15;;;;;;;18.71;46.68;100803.38;5033331;28;20092;-75
2021/04/23 11:06:44;;;;;;;2.05;1.23;;;;;;;18.83;45.55;100800.88;5032498;28;20541;-77
2021/04/23 11:09:14;;;;;;;4.97;3.47;;;;;;;18.81;44.80;100807.81;5036827;28;20396;-73
2021/04/23 11:11:42;;;;;;;4.35;2.38;;;;;;;18.40;45.54;100748.19;5031304;28;20112;-74
2021/04/23 11:14:23;;;;;;;6.47;5.05;;;;;;;18.78;45.50;100786.88;5029476;28;20048;-73
2021/04/23 11:16:51;;;;;;;5.82;1.40;;;;;;;18.90;45.61;100802.69;5034524;28;20069;-74
2021/04/23 11:19:22;;;;;;;2.30;1.90;;;;;;;19.32;43.88;100789.03;5033466;28;20059;-73
2021/04/23 11:21:52;;;;;;;2.10;1.00;;;;;;;18.80;45.02;100799.97;5033742;28;20049;-72
2021/04/23 11:24:20;;;;;;;11.38;8.30;;;;;;;19.11;45.42;100802.84;5033796;28;20479;-75
2021/04/23 11:27:03;;;;;;;14.60;10.20;;;;;;;19.07;45.03;100804.56;5036386;28;20033;-74
2021/04/23 11:29:39;;;;;;;1.80;1.30;;;;;;;19.25;45.35;100795.94;5034288;28;20030;-72